Offutt Lake, Washington
Current Conditions -  °F | °C
As of 12:54 PM on Tuesday 21 Oct 2014 (Local Time) from KOLM Reporting Station
Overcast Overcast  
Wind Chill: 57°   Ceiling: 4700
Heat Index: 57°   Visibility: 10mi
Dew Point: 52°   Wind: 12mph
Humidity: 83%   Direction: 190°S
Pressure: 29.94"   Gusts: NA
Location:  46.9755°N, 122.872°W
Report Text: KOLM 211954Z 19010KT 10SM FEW018 BKN047 OVC060 14/11 A2994 RMK AO2 RAE14B37E47 SLP137 P0000 T01390111
Loading
Personal Weather Stations






























Interactive Weather Map New forecast layout! Learn more

10-Day Weather Forecast

Advertisements
Track Severe Weather on mobile